Flight Track Log - Related Links

Times and Time Zones

All times are in EDT time to prevent confusion due to time zone crossing. See the N6ZE flight status page for this flight to view local times or setup timezone preferences in your user account.

Time Position Orientation Groundspeed Altitude Reporting Facility
EDT Latitude Longitude Course Direction KTS MPH feet Rate Location/Type
Thu 04:54:41 PM 25.6431 -80.4519 326° Northwest 123 142 700  Level Miami Center
Thu 04:56:02 PM 25.6642 -80.5272 287° West 212 244 4,100 2,571 Climbing Miami Center
Thu 04:56:19 PM 25.6753 -80.5375 320° Northwest 221 254 4,900 2,786 Climbing Miami Center
Thu 04:57:26 PM 25.7439 -80.5756 333° Northwest 235 270 8,000 2,411 Climbing Miami Center
Thu 04:58:06 PM 25.7739 -80.5839 346° North 237 273 9,200 2,459 Climbing Miami Center
Thu 04:58:27 PM 25.8081 -80.5897 351° North 241 277 10,500 2,903 Climbing Miami Center
Thu 04:59:08 PM 25.8553 -80.5933 356° North 243 280 12,200 2,459 Climbing Miami Center
Thu 04:59:28 PM 25.8786 -80.5978 350° North 248 285 13,000 2,226 Climbing Miami Center
Thu 05:00:00 PM 26.1147 -80.7527 326° Northwest  Level FlightAware Approximate
Thu 05:00:10 PM 25.9239 -80.5994 358° North 245 282 14,500  Level Miami Center
Thu 05:01:12 PM 25.9950 -80.6064 355° North 252 290 16,000 726 Climbing Miami Center
Thu 05:02:14 PM 26.0819 -80.6142 355° North 313 360 16,000 145 Level Miami Center
Thu 05:03:16 PM 26.1778 -80.6244 355° North 340 391 16,300 1,403 Climbing Miami Center
Thu 05:04:18 PM 26.2769 -80.6342 355° North 303 349 18,900 1,306 Climbing Miami Center
Thu 05:05:20 PM 26.3600 -80.6636 342° North 330 380 19,000 532 Climbing Miami Center
Thu 05:06:22 PM 26.4144 -80.7603 302° West 342 394 20,000 2,226 Climbing Miami Center
Thu 05:07:24 PM 26.4358 -80.8358 288° West 238 274 23,600 2,371 Climbing Miami Center
Thu 05:08:26 PM 26.4397 -80.9128 273° West 235 270 24,900 1,016 Climbing Miami Center
Thu 05:09:28 PM 26.4444 -80.9939 274° West 261 300 25,700 829 Climbing Miami Center
Thu 05:10:29 PM 26.4500 -81.0692 275° West 279 321 26,600 1,024 Climbing Miami Center
Thu 05:11:31 PM 26.4639 -81.1769 278° West 290 334 27,800 1,065 Climbing Miami Center
Thu 05:12:33 PM 26.5047 -81.2614 298° West 314 361 28,800 1,210 Climbing Miami Center
Thu 05:13:35 PM 26.5508 -81.3483 301° West 315 362 30,300 1,306 Climbing Miami Center
Thu 05:14:37 PM 26.5825 -81.4397 291° West 306 352 31,500 1,161 Climbing Miami Center
Thu 05:15:39 PM 26.6153 -81.5325 292° West 305 351 32,700 1,113 Climbing Miami Center
Thu 05:16:41 PM 26.6456 -81.6153 292° West 304 350 33,800 1,065 Climbing Miami Center
Thu 05:17:43 PM 26.6736 -81.6933 292° West 304 350 34,900 1,171 Climbing Miami Center
Thu 05:18:44 PM 26.7108 -81.7969 292° West 301 346 36,200 976 Climbing Miami Center
Thu 05:19:46 PM 26.7417 -81.8853 291° West 303 349 36,900 774 Climbing Miami Center
Thu 05:20:48 PM 26.7731 -81.9742 292° West 304 350 37,800 823 Climbing Miami Center
Thu 05:21:50 PM 26.8042 -82.0639 291° West 309 356 38,600 677 Climbing Miami Center
Thu 05:22:52 PM 26.8367 -82.1542 292° West 310 357 39,200 484 Climbing Miami Center
Thu 05:23:54 PM 26.8686 -82.2467 291° West 317 365 39,600 387 Climbing Miami Center
Thu 05:24:56 PM 26.9022 -82.3425 291° West 325 374 40,000 194 Climbing Miami Center
Thu 05:25:58 PM 26.9458 -82.4661 292° West 352 405 40,000  Level Miami Center
Thu 05:26:59 PM 26.9811 -82.5706 291° West 363 418 40,000  Level Miami Center
Thu 05:28:01 PM 27.0197 -82.6819 291° West 376 433 40,000  Level Miami Center
Thu 05:29:03 PM 27.0597 -82.7956 292° West 386 444 40,000  Level Miami Center
Thu 05:30:05 PM 27.0989 -82.9103 291° West 391 450 40,000  Level Miami Center
Thu 05:31:07 PM 27.1381 -83.0253 291° West 392 451 40,000  Level Miami Center
Thu 05:32:09 PM 27.1789 -83.1406 292° West 392 451 40,000  Level Miami Center
Thu 05:33:10 PM 27.2275 -83.2783 292° West 394 453 40,000  Level Miami Center
Thu 05:34:12 PM 27.2667 -83.3931 291° West 394 453 40,000  Level Miami Center
Thu 05:35:14 PM 27.3061 -83.5083 291° West 394 453 40,000  Level Miami Center
Thu 05:36:16 PM 27.3442 -83.6239 290° West 395 455 40,000  Level Miami Center
Thu 05:37:18 PM 27.3844 -83.7389 292° West 395 455 40,000  Level Miami Center
Thu 05:38:20 PM 27.4231 -83.8544 291° West 394 453 40,000  Level Miami Center
Thu 05:39:22 PM 27.4608 -83.9683 291° West 394 453 40,000  Level Miami Center
Thu 05:40:24 PM 27.5069 -84.1064 291° West 392 451 40,000  Level Miami Center
Thu 05:41:26 PM 27.5447 -84.2219 290° West 392 451 40,000  Level Miami Center
Thu 05:42:28 PM 27.5842 -84.3381 291° West 393 452 40,000  Level Miami Center
Thu 05:43:30 PM 27.6225 -84.4536 291° West 394 453 40,000  Level Miami Center
Thu 05:44:15 PM 27.6531 -84.5581 288° West 407 468 40,000  Level Jacksonville Center
Thu 05:45:15 PM 27.6953 -84.6736 292° West 407 468 40,000  Level Jacksonville Center
Thu 05:46:15 PM 27.7292 -84.7936 288° West 402 463 40,000  Level Jacksonville Center
Thu 05:47:15 PM 27.7631 -84.8858 293° West 396 456 40,000  Level Jacksonville Center
Thu 05:48:15 PM 27.8008 -85.0039 290° West 390 449 40,000  Level Jacksonville Center
Thu 05:49:16 PM 27.8386 -85.1219 290° West 392 451 40,000  Level Jacksonville Center
Thu 05:50:15 PM 27.8764 -85.2308 291° West 386 444 40,000  Level Jacksonville Center
Thu 05:51:15 PM 27.9117 -85.3489 289° West 395 455 40,000  Level Jacksonville Center
Thu 05:52:15 PM 27.9447 -85.4672 288° West 389 448 40,000  Level Jacksonville Center
Thu 05:53:15 PM 27.9803 -85.5714 291° West 382 440 40,000  Level Jacksonville Center
Thu 05:54:50 PM 28.0383 -85.7617 289° West 391 450 40,000  Level Miami Center
Thu 05:55:52 PM 28.0722 -85.8761 289° West 391 450 40,000  Level Miami Center
Thu 05:56:54 PM 28.1064 -85.9925 288° West 388 447 40,000  Level Miami Center
Thu 05:57:55 PM 28.1428 -86.1081 290° West 389 448 40,000  Level Miami Center
Thu 05:59:12 PM 28.1864 -86.2603 288° West 387 445 40,000  Level Houston Center
Thu 06:00:14 PM 28.2203 -86.3772 288° West 388 447 40,000  Level Houston Center
Thu 06:01:16 PM 28.2550 -86.4950 289° West 391 450 40,000  Level Houston Center
Thu 06:02:15 PM 28.2919 -86.6214 288° West 389 448 40,000  Level Jacksonville Center
Thu 06:03:15 PM 28.3222 -86.7333 287° West 382 440 40,000  Level Jacksonville Center
Thu 06:04:15 PM 28.3583 -86.8481 290° West 389 448 40,000  Level Jacksonville Center
Thu 06:05:15 PM 28.3900 -86.9647 287° West 384 442 40,000  Level Jacksonville Center
Thu 06:06:15 PM 28.4261 -87.0794 290° West 384 442 40,000  Level Jacksonville Center
Thu 06:08:31 PM 28.5033 -87.3494 288° West 386 444 40,000  Level Houston Center
Thu 06:09:33 PM 28.5361 -87.4639 288° West 386 444 40,000  Level Houston Center
Thu 06:10:36 PM 28.5700 -87.5808 288° West 386 444 40,000  Level Houston Center
Thu 06:11:38 PM 28.6022 -87.6964 288° West 386 444 40,000  Level Houston Center
Thu 06:12:40 PM 28.6358 -87.8133 288° West 386 444 40,000  Level Houston Center
Thu 06:13:42 PM 28.6686 -87.9294 288° West 386 444 40,000  Level Houston Center
Thu 06:14:44 PM 28.7083 -88.0703 288° West 386 444 40,000  Level Houston Center
Thu 06:15:46 PM 28.7419 -88.1869 288° West 386 444 40,000  Level Houston Center
Thu 06:16:49 PM 28.7747 -88.3053 288° West 387 445 40,000  Level Houston Center
Thu 06:17:51 PM 28.8072 -88.4250 287° West 390 449 40,000  Level Houston Center
Thu 06:18:53 PM 28.8408 -88.5417 288° West 390 449 40,000  Level Houston Center
Thu 06:19:55 PM 28.8817 -88.6839 288° West 390 449 40,000  Level Houston Center
Thu 06:20:57 PM 28.9083 -88.8047 284° West 390 449 40,000  Level Houston Center
Thu 06:21:59 PM 28.9342 -88.9256 284° West 390 449 40,000  Level Houston Center
Thu 06:23:02 PM 28.9586 -89.0458 283° West 391 450 40,000  Level Houston Center
Thu 06:24:04 PM 28.9839 -89.1694 283° West 391 450 40,000  Level Houston Center
Thu 06:25:06 PM 29.0086 -89.2906 283° West 391 450 40,000  Level Houston Center
Thu 06:26:08 PM 29.0378 -89.4361 283° West 391 450 40,000  Level Houston Center
Thu 06:27:10 PM 29.0633 -89.5575 284° West 391 450 40,000  Level Houston Center
Thu 06:28:12 PM 29.0878 -89.6775 283° West 391 450 40,000  Level Houston Center
Thu 06:29:14 PM 29.1125 -89.7972 283° West 391 450 40,000  Level Houston Center
Thu 06:30:17 PM 29.1378 -89.9197 283° West 391 450 40,000  Level Houston Center
Thu 06:31:19 PM 29.1625 -90.0400 283° West 391 450 40,000  Level Houston Center
Thu 06:32:21 PM 29.1797 -90.1869 278° West 389 448 40,000  Level Houston Center
Thu 06:33:23 PM 29.1833 -90.3106 272° West 388 447 40,000  Level Houston Center
Thu 06:34:25 PM 29.1875 -90.4358 272° West 390 449 40,000  Level Houston Center
Thu 06:35:27 PM 29.1917 -90.5583 272° West 389 448 40,000  Level Houston Center
Thu 06:36:30 PM 29.1964 -90.6828 273° West 389 448 40,000  Level Houston Center
Thu 06:37:32 PM 29.2003 -90.8067 272° West 390 449 40,000  Level Houston Center
Thu 06:38:34 PM 29.2044 -90.9556 272° West 390 449 40,000  Level Houston Center
Thu 06:39:36 PM 29.2083 -91.0789 272° West 389 448 40,000  Level Houston Center
Thu 06:40:38 PM 29.2114 -91.2042 272° West 389 448 40,000  Level Houston Center
Thu 06:41:40 PM 29.2150 -91.3283 272° West 390 449 40,000  Level Houston Center
Thu 06:42:42 PM 29.2194 -91.4536 272° West 394 453 40,000  Level Houston Center
Thu 06:43:44 PM 29.2214 -91.5778 271° West 394 453 40,000  Level Houston Center
Thu 06:44:47 PM 29.2261 -91.7250 272° West 394 453 40,000  Level Houston Center
Thu 06:45:49 PM 29.2294 -91.8511 272° West 394 453 40,000  Level Houston Center
Thu 06:46:51 PM 29.2311 -91.9781 271° West 395 455 40,000  Level Houston Center
Thu 06:47:53 PM 29.2350 -92.1017 272° West 394 453 40,000  Level Houston Center
Thu 06:48:55 PM 29.2381 -92.2297 272° West 400 460 40,000  Level Houston Center
Thu 06:49:57 PM 29.2417 -92.3828 272° West 401 461 40,000  Level Houston Center
Thu 06:50:59 PM 29.2461 -92.5117 272° West 402 463 40,000  Level Houston Center
Thu 06:52:01 PM 29.2569 -92.6389 276° West 403 464 40,000  Level Houston Center
Thu 06:53:03 PM 29.2672 -92.7672 275° West 403 464 40,000 -48 Level Houston Center
Thu 06:54:05 PM 29.2761 -92.8964 275° West 405 466 39,900 -435 Descending Houston Center
Thu 06:55:07 PM 29.2856 -93.0239 275° West 405 466 39,100 -871 Descending Houston Center
Thu 06:56:09 PM 29.2944 -93.1478 275° West 395 455 38,100 -1,113 Descending Houston Center
Thu 06:57:11 PM 29.3067 -93.2933 276° West 383 441 36,800 -1,452 Descending Houston Center
Thu 06:58:13 PM 29.3156 -93.4153 275° West 381 438 35,100 -1,790 Descending Houston Center
Thu 06:59:15 PM 29.3250 -93.5422 275° West 395 455 33,100 -1,984 Descending Houston Center
Thu 07:00:17 PM 29.3347 -93.6694 275° West 399 459 31,000 -2,032 Descending Houston Center
Thu 07:01:19 PM 29.3444 -93.7944 275° West 396 456 28,900 -2,129 Descending Houston Center
Thu 07:02:21 PM 29.3536 -93.9300 274° West 396 456 26,600 -2,400 Descending Houston Center
Thu 07:02:34 PM 29.3533 -93.9678 270° West 399 459 25,900 -2,129 Descending Houston Center
Thu 07:03:23 PM 29.3603 -94.0592 275° West 401 461 24,400 -1,838 Descending Houston Center
Thu 07:04:25 PM 29.3667 -94.1856 273° West 401 461 22,500 -2,098 Descending Houston Center
Thu 07:05:26 PM 29.3731 -94.3300 273° West 398 458 20,100 -2,952 Descending Houston Center
Thu 07:06:29 PM 29.3869 -94.4542 277° West 377 434 16,400 -3,360 Descending Houston Center
Thu 07:07:31 PM 29.3986 -94.5633 277° West 351 404 13,100 -3,300 Descending Houston Center
Thu 07:08:29 PM 29.4086 -94.6686 276° West 321 369 9,800 -2,098 Descending Houston Center
Thu 07:09:34 PM 29.4397 -94.7508 294° West 290 334 8,800 -829 Descending Houston Center
Thu 07:10:32 PM 29.4733 -94.8406 293° West 289 333 8,100 -655 Descending Houston Center
Thu 07:11:33 PM 29.5025 -94.9233 292° West 274 315 7,500 -836 Descending Houston Center
Thu 07:12:34 PM 29.5333 -95.0061 293° West 279 321 6,400 -738 Descending Houston Center
Thu 07:13:35 PM 29.5619 -95.0867 292° West 274 315 6,000 -197 Descending Houston Center
Thu 07:14:36 PM 29.5889 -95.1722 290° West 268 308 6,000  Level Houston Center
Thu 07:15:46 PM 29.5914 -95.2589 272° West 245 282 6,000  Level Houston Center
Thu 07:16:48 PM 29.5925 -95.3300 271° West 228 262 6,000 -421 Level Houston Center
Thu 07:17:40 PM 29.6047 -95.3889 283° West 209 241 5,200 -871 Descending Houston Center
Thu 07:17:50 PM 29.6050 -95.3933 274° West 214 246 5,100 -984 Descending Houston Center
Thu 07:18:41 PM 29.6328 -95.4433 303° West 203 234 4,200 -968 Descending Houston Center
Thu 07:18:52 PM 29.6369 -95.4483 314° West 208 239 4,100 -984 Descending Houston Center
Thu 07:19:42 PM 29.6775 -95.4739 331° Northwest 195 224 3,200 -968 Descending Houston Center
Thu 07:19:54 PM 29.6806 -95.4717 32° Northeast 202 232 3,100 -1,180 Descending Houston Center
Thu 07:20:43 PM 29.7089 -95.4269 54° Northeast 193 222 2,000 -1,065 Descending Houston Center
Thu 07:20:56 PM 29.7111 -95.4231 57° Northeast 193 222 2,000  Level Houston Center
Thu 07:21:44 PM 29.7228 -95.3722 75° East 177 204 2,000  Level Houston Center
Thu 07:21:58 PM 29.7219 -95.3697 111° Southeast 198 228 2,000 -590 Level Houston Center
Thu 07:22:45 PM 29.6875 -95.3308 136° Southeast 186 214 1,400 -871 Descending Houston Center
Thu 07:23:00 PM 29.6817 -95.3211 125° Southeast 183 211 1,100 -984 Descending Houston Center
Thu 07:23:46 PM 29.6592 -95.2958 136° Southeast 117 135 400 -871 Descending Houston Center
Thu 07:24:02 PM 29.6556 -95.2903 127° Southeast 150 173 200 -750 Descending Houston Center

Login

Don't have an account? Register now (free) for customized features, flight alerts, and more!